| time (UTC) | temp C | wind direction | speed KPH | gust KPH | rain 1hr cm | rain 24hr cm | rain mn cm | humidity % | barometer mb |
| 20260905151303 | 20 | 246 | 6.4 | 12.9 | 0.00 | 0.00 | 0.00 | 47 | 1002.3 |
| 20260905145802 | 20 | 326 | 6.4 | 16.1 | 0.00 | 0.00 | 0.00 | 48 | 1002.3 |
| 20260905144301 | 21 | 242 | 6.4 | 17.7 | 0.00 | 0.00 | 0.00 | 45 | 1002.3 |
| 20260905142800 | 21 | 246 | 6.4 | 16.1 | 0.00 | 0.00 | 0.00 | 46 | 1002.1 |
| 20260905141259 | 20 | 14 | 4.8 | 14.5 | 0.00 | 0.00 | 0.00 | 50 | 1002.1 |
| 20260905135758 | 20 | 305 | 6.4 | 16.1 | 0.00 | 0.00 | 0.00 | 49 | 1002.1 |
| 20260905134257 | 21 | 294 | 6.4 | 16.1 | 0.00 | 0.00 | 0.00 | 47 | 1002.2 |
| 20260905132756 | 22 | 258 | 6.4 | 14.5 | 0.00 | 0.00 | 0.00 | 48 | 1002.1 |
| 20260905131255 | 22 | 265 | 6.4 | 16.1 | 0.00 | 0.00 | 0.00 | 46 | 1002.1 |
| 20260905125754 | 22 | 266 | 6.4 | 11.3 | 0.00 | 0.00 | 0.00 | 46 | 1002.1 |
| 20260905124253 | 20 | 274 | 4.8 | 12.9 | 0.00 | 0.00 | 0.00 | 53 | 1002.3 |
| 20260905122752 | 20 | 204 | 6.4 | 14.5 | 0.00 | 0.00 | 0.00 | 53 | 1002.6 |
| 20260905121251 | 20 | 266 | 6.4 | 14.5 | 0.00 | 0.00 | 0.00 | 52 | 1002.8 |
| 20260905115750 | 20 | 240 | 6.4 | 16.1 | 0.00 | 0.00 | 0.00 | 53 | 1002.7 |
| 20260905114250 | 21 | 282 | 6.4 | 14.5 | 0.00 | 0.00 | 0.00 | 49 | 1002.7 |
| 20260905112747 | 21 | 234 | 6.4 | 14.5 | 0.00 | 0.00 | 0.00 | 50 | 1002.8 |
| 20260905111247 | 22 | 277 | 6.4 | 14.5 | 0.00 | 0.00 | 0.00 | 51 | 1002.7 |
| 20260905105745 | 21 | 240 | 6.4 | 14.5 | 0.00 | 0.00 | 0.00 | 53 | 1002.7 |
| 20260905104244 | 20 | 266 | 4.8 | 16.1 | 0.00 | 0.00 | 0.00 | 58 | 1002.7 |
| 20260905102743 | 20 | 271 | 6.4 | 16.1 | 0.00 | 0.00 | 0.00 | 55 | 1002.7 |
| 20260905101243 | 19 | 271 | 6.4 | 14.5 | 0.00 | 0.00 | 0.00 | 59 | 1002.8 |
| 20260905095742 | 19 | 251 | 6.4 | 12.9 | 0.00 | 0.00 | 0.00 | 60 | 1002.5 |
| 20260905094241 | 18 | 264 | 6.4 | 14.5 | 0.00 | 0.00 | 0.00 | 63 | 1002.7 |
| 20260905092740 | 20 | 280 | 6.4 | 17.7 | 0.00 | 0.00 | 0.00 | 60 | 1002.5 |
| 20260905091239 | 19 | 258 | 6.4 | 11.3 | 0.00 | 0.00 | 0.00 | 62 | 1002.5 |
| 20260905085737 | 19 | 304 | 6.4 | 16.1 | 0.00 | 0.00 | 0.00 | 62 | 1002.5 |
| 20260905084236 | 18 | 219 | 6.4 | 17.7 | 0.00 | 0.00 | 0.00 | 63 | 1002.5 |
| 20260905082735 | 18 | 318 | 4.8 | 14.5 | 0.00 | 0.00 | 0.00 | 65 | 1002.3 |
| 20260905081234 | 18 | 265 | 6.4 | 16.1 | 0.00 | 0.00 | 0.00 | 64 | 1002.2 |
| 20260905075732 | 18 | 258 | 6.4 | 14.5 | 0.00 | 0.00 | 0.00 | 68 | 1002.1 |
| 20260905074232 | 17 | 278 | 6.4 | 19.3 | 0.00 | 0.00 | 0.00 | 69 | 1002.0 |
| 20260905072731 | 17 | 288 | 6.4 | 11.3 | 0.00 | 0.00 | 0.00 | 72 | 1001.9 |
| 20260905071230 | 17 | 309 | 6.4 | 14.5 | 0.00 | 0.00 | 0.00 | 76 | 1001.6 |
| 20260905065729 | 17 | 264 | 6.4 | 11.3 | 0.00 | 0.00 | 0.00 | 77 | 1001.6 |
| 20260905064228 | 16 | 263 | 4.8 | 9.7 | 0.00 | 0.00 | 0.00 | 81 | 1001.5 |
| 20260905062726 | 16 | 186 | 3.2 | 8.0 | 0.00 | 0.00 | 0.00 | 85 | 1001.3 |
| 20260905061226 | 15 | 285 | 3.2 | 6.4 | 0.00 | 0.00 | 0.00 | 87 | 1001.2 |
| 20260905055724 | 15 | 274 | 3.2 | 9.7 | 0.00 | 0.00 | 0.00 | 88 | 1001.2 |
| 20260905054223 | 15 | 270 | 1.6 | 6.4 | 0.00 | 0.00 | 0.00 | 87 | 1001.0 |
| 20260905052722 | 15 | 276 | 1.6 | 6.4 | 0.00 | 0.00 | 0.00 | 88 | 1000.9 |
| 20260905051221 | 14 | 262 | 1.6 | 6.4 | 0.00 | 0.00 | 0.00 | 90 | 1000.7 |
| 20260905045720 | 14 | 270 | 1.6 | 4.8 | 0.00 | 0.00 | 0.00 | 90 | 1000.6 |
| 20260905044219 | 15 | 267 | 1.6 | 8.0 | 0.00 | 0.00 | 0.00 | 90 | 1000.5 |
| 20260905042718 | 15 | 282 | 3.2 | 6.4 | 0.00 | 0.00 | 0.00 | 90 | 1000.2 |
| 20260905041217 | 15 | 269 | 3.2 | 9.7 | 0.00 | 0.00 | 0.00 | 90 | 1000.1 |
| 20260905035716 | 15 | 240 | 3.2 | 8.0 | 0.00 | 0.00 | 0.00 | 90 | 999.8 |
| 20260905034215 | 15 | 225 | 3.2 | 6.4 | 0.00 | 0.00 | 0.00 | 90 | 999.9 |
| 20260905032714 | 15 | 275 | 3.2 | 6.4 | 0.00 | 0.00 | 0.00 | 90 | 999.7 |
| 20260905031213 | 15 | 211 | 3.2 | 6.4 | 0.00 | 0.00 | 0.00 | 90 | 999.5 |
| 20260905025712 | 15 | 264 | 1.6 | 6.4 | 0.00 | 0.00 | 0.00 | 91 | 999.1 |
| 20260905024211 | 15 | 276 | 1.6 | 6.4 | 0.00 | 0.00 | 0.00 | 91 | 999.1 |
| 20260905022709 | 15 | 268 | 1.6 | 4.8 | 0.00 | 0.00 | 0.00 | 91 | 998.9 |
| 20260905021209 | 15 | 264 | 3.2 | 6.4 | 0.00 | 0.00 | 0.00 | 91 | 998.7 |
| 20260905015707 | 15 | 269 | 3.2 | 9.7 | 0.00 | 0.00 | 0.00 | 91 | 998.4 |
| 20260905014206 | 15 | 257 | 3.2 | 9.7 | 0.00 | 0.00 | 0.00 | 91 | 998.6 |
| 20260905012705 | 15 | 276 | 1.6 | 6.4 | 0.00 | 0.00 | 0.00 | 92 | 998.5 |
| 20260905011204 | 15 | 270 | 1.6 | 9.7 | 0.00 | 0.00 | 0.00 | 92 | 998.1 |
| 20260905005703 | 15 | 282 | 1.6 | 6.4 | 0.00 | 0.00 | 0.00 | 93 | 998.1 |
| 20260905004202 | 15 | 206 | 4.8 | 9.7 | 0.00 | 0.00 | 0.00 | 92 | 998.5 |
| 20260905002701 | 15 | 300 | 4.8 | 11.3 | 0.03 | 0.00 | 0.00 | 92 | 998.4 |
| 20260905001200 | 15 | 292 | 4.8 | 14.5 | 0.03 | 0.00 | 0.00 | 92 | 998.0 |
| 20260904235659 | 15 | 262 | 4.8 | 11.3 | 0.05 | 0.00 | 0.00 | 92 | 997.7 |
| 20260904234158 | 15 | 246 | 4.8 | 11.3 | 0.05 | 0.00 | 0.00 | 93 | 997.9 |
| 20260904232657 | 15 | 228 | 3.2 | 6.4 | 0.08 | 0.00 | 0.00 | 93 | 997.6 |
| 20260904231156 | 15 | 223 | 3.2 | 9.7 | 0.08 | 0.00 | 0.00 | 93 | 997.6 |
| 20260904225655 | 15 | 330 | 3.2 | 8.0 | 0.13 | 0.00 | 0.00 | 93 | 996.9 |
| 20260904224153 | 15 | 276 | 3.2 | 8.0 | 0.13 | 0.00 | 0.00 | 93 | 996.9 |
| 20260904222653 | 15 | 222 | 3.2 | 6.4 | 0.15 | 0.00 | 0.00 | 93 | 997.2 |
| 20260904221152 | 15 | 315 | 3.2 | 8.0 | 0.10 | 0.00 | 0.00 | 93 | 997.0 |
| 20260904215650 | 15 | 276 | 3.2 | 6.4 | 0.10 | 0.00 | 0.00 | 92 | 996.8 |
| 20260904214149 | 15 | 300 | 3.2 | 6.4 | 0.18 | 0.00 | 0.00 | 92 | 997.0 |
| 20260904212648 | 15 | 281 | 1.6 | 6.4 | 0.15 | 0.00 | 0.00 | 93 | 997.0 |
| 20260904211147 | 15 | 300 | 3.2 | 8.0 | 0.23 | 0.00 | 0.00 | 92 | 996.6 |
| 20260904205646 | 16 | 276 | 4.8 | 9.7 | 0.10 | 0.00 | 0.00 | 91 | 996.9 |
| 20260904204144 | 16 | 318 | 4.8 | 11.3 | 0.10 | 0.00 | 0.00 | 90 | 996.9 |
| 20260904202643 | 16 | 274 | 4.8 | 8.0 | 0.00 | 0.00 | 0.00 | 86 | 997.1 |
| 20260904201142 | 16 | 312 | 4.8 | 8.0 | 0.08 | 0.00 | 0.00 | 86 | 996.5 |
| 20260904195641 | 17 | 321 | 8.0 | 19.3 | 0.08 | 0.00 | 0.00 | 85 | 996.9 |
| 20260904194140 | 18 | 258 | 4.8 | 16.1 | 0.08 | 0.00 | 0.00 | 84 | 996.7 |
| 20260904192639 | 21 | 276 | 3.2 | 8.0 | 0.00 | 0.00 | 0.00 | 63 | 995.5 |
| 20260904191138 | 22 | 4 | 4.8 | 11.3 | 0.00 | 0.00 | 0.00 | 63 | 995.4 |
| 20260904185637 | 23 | 46 | 6.4 | 16.1 | 0.00 | 0.00 | 0.00 | 64 | 995.0 |
| 20260904184136 | 23 | 245 | 6.4 | 20.9 | 0.00 | 0.00 | 0.00 | 68 | 994.5 |
| 20260904182635 | 24 | 120 | 3.2 | 9.7 | 0.00 | 0.00 | 0.00 | 61 | 993.1 |
| 20260904181134 | 23 | 108 | 1.6 | 9.7 | 0.00 | 0.00 | 0.00 | 62 | 993.2 |
| 20260904175633 | 24 | 185 | 1.6 | 6.4 | 0.00 | 0.00 | 0.00 | 62 | 992.9 |
| 20260904174132 | 24 | 222 | 1.6 | 6.4 | 0.00 | 0.00 | 0.00 | 62 | 993.1 |
| 20260904172631 | 24 | 180 | 1.6 | 6.4 | 0.00 | 0.00 | 0.00 | 63 | 993.3 |
| 20260904171130 | 24 | 247 | 3.2 | 8.0 | 0.00 | 0.00 | 0.00 | 61 | 993.6 |
| 20260904165629 | 24 | 206 | 3.2 | 9.7 | 0.00 | 0.00 | 0.00 | 61 | 993.7 |
| 20260904164128 | 25 | 316 | 3.2 | 11.3 | 0.00 | 0.00 | 0.00 | 62 | 993.8 |
| 20260904162627 | 25 | 259 | 3.2 | 11.3 | 0.00 | 0.00 | 0.00 | 61 | 994.0 |
| 20260904161126 | 25 | 233 | 3.2 | 11.3 | 0.00 | 0.00 | 0.00 | 60 | 994.0 |
| 20260904155625 | 25 | 299 | 3.2 | 11.3 | 0.00 | 0.00 | 0.00 | 61 | 994.2 |
| 20260904154123 | 24 | 222 | 4.8 | 11.3 | 0.00 | 0.00 | 0.00 | 62 | 994.2 |
| 20260904152622 | 25 | 270 | 4.8 | 14.5 | 0.00 | 0.00 | 0.00 | 62 | 994.4 |